Time;durP1;ratioP1;P1;durP2;ratioP2;P2;SDS_P1;SDS_P2;PMS_P1;PMS_P2;Temp;Humidity;BMP_temperature;BMP_pressure;BME280_temperature;BME280_humidity;BME280_pressure;Samples;Min_cycle;Max_cycle;Signal;HPM_P1;HPM_P2
2023/12/29 00:00:36;;;;;;;5.63;3.73;;;8.90;99.90;;;;;;5052101;28;20675;-72
2023/12/29 00:03:02;;;;;;;9.97;3.73;;;8.90;99.90;;;;;;5051126;28;20214;-75
2023/12/29 00:05:28;;;;;;;11.37;4.27;;;9.00;99.90;;;;;;5052032;28;20180;-72
2023/12/29 00:07:54;;;;;;;10.87;4.90;;;8.90;99.90;;;;;;5051432;28;20449;-73
2023/12/29 00:10:21;;;;;;;4.93;3.80;;;8.90;99.90;;;;;;5069749;28;20173;-72
2023/12/29 00:12:47;;;;;;;9.57;4.00;;;8.90;99.90;;;;;;5064994;28;20178;-71
2023/12/29 00:15:12;;;;;;;6.23;4.10;;;8.90;99.90;;;;;;5056577;28;20425;-71
2023/12/29 00:17:40;;;;;;;8.97;3.60;;;8.90;99.90;;;;;;5051079;28;20648;-70
2023/12/29 00:20:08;;;;;;;7.83;3.17;;;8.90;99.90;;;;;;5052293;28;20259;-70
2023/12/29 00:22:34;;;;;;;12.60;3.93;;;8.90;99.90;;;;;;5051096;28;20418;-69
2023/12/29 00:24:59;;;;;;;8.83;3.10;;;8.90;99.90;;;;;;5065196;28;20446;-73
2023/12/29 00:27:25;;;;;;;11.23;3.00;;;8.90;99.90;;;;;;5072774;28;20419;-74
2023/12/29 00:29:51;;;;;;;10.47;3.30;;;8.90;99.90;;;;;;5063473;28;20209;-69
2023/12/29 00:32:17;;;;;;;7.40;2.47;;;8.90;99.90;;;;;;5052224;28;20210;-70
2023/12/29 00:34:42;;;;;;;3.50;2.20;;;8.90;99.90;;;;;;5049779;28;20247;-75
2023/12/29 00:37:08;;;;;;;4.80;2.50;;;8.90;99.90;;;;;;5053436;28;20540;-69
2023/12/29 00:39:38;;;;;;;6.93;2.73;;;8.90;99.90;;;;;;5051832;28;20540;-72
2023/12/29 00:42:06;;;;;;;5.63;2.37;;;8.90;99.90;;;;;;5051372;28;20182;-72
2023/12/29 00:44:32;;;;;;;2.70;1.93;;;8.90;99.90;;;;;;5051304;28;20782;-77
2023/12/29 00:46:59;;;;;;;2.50;2.30;;;8.90;99.90;;;;;;5052468;28;20821;-69
2023/12/29 00:49:25;;;;;;;2.70;2.50;;;8.90;99.90;;;;;;5052434;28;20456;-68
2023/12/29 00:51:51;;;;;;;3.60;2.00;;;8.90;99.90;;;;;;5052092;28;20940;-74
2023/12/29 00:54:17;;;;;;;6.70;2.80;;;8.80;99.90;;;;;;5051589;28;20201;-72
2023/12/29 00:56:51;;;;;;;2.10;1.90;;;8.80;99.90;;;;;;5035289;28;20467;-69
2023/12/29 00:59:19;;;;;;;5.83;2.60;;;8.80;99.90;;;;;;5052232;28;20191;-71
2023/12/29 01:01:45;;;;;;;4.27;2.83;;;8.80;99.90;;;;;;5046258;28;20907;-72
2023/12/29 01:04:11;;;;;;;8.33;3.03;;;8.80;99.90;;;;;;5055192;28;20534;-69
2023/12/29 01:06:37;;;;;;;11.30;2.83;;;8.70;99.90;;;;;;5053568;28;20179;-67
2023/12/29 01:09:03;;;;;;;4.10;2.60;;;8.70;99.90;;;;;;5055508;28;20459;-70
2023/12/29 01:11:29;;;;;;;3.13;2.83;;;8.70;99.90;;;;;;5055388;28;20673;-70
2023/12/29 01:13:54;;;;;;;5.53;2.70;;;8.70;99.90;;;;;;5055894;28;20435;-67
2023/12/29 01:16:20;;;;;;;3.00;2.57;;;8.70;99.90;;;;;;5053375;28;20188;-67
2023/12/29 01:18:46;;;;;;;3.80;3.37;;;8.70;99.90;;;;;;5056157;28;20211;-67
2023/12/29 01:21:12;;;;;;;3.03;2.80;;;8.70;99.90;;;;;;5055738;28;20180;-67
2023/12/29 01:23:37;;;;;;;8.70;4.20;;;8.70;99.90;;;;;;5054755;28;20387;-70
2023/12/29 01:26:03;;;;;;;7.13;3.30;;;8.70;99.90;;;;;;5068700;28;20419;-66
2023/12/29 01:28:29;;;;;;;7.40;3.43;;;8.80;99.90;;;;;;5056168;28;20240;-72
2023/12/29 01:30:54;;;;;;;6.17;3.30;;;8.70;99.90;;;;;;5049148;28;21273;-70
2023/12/29 01:33:21;;;;;;;2.80;2.60;;;8.70;99.90;;;;;;5053710;28;20187;-70
2023/12/29 01:35:47;;;;;;;4.37;2.93;;;8.70;99.90;;;;;;5054733;28;20255;-68
2023/12/29 01:38:12;;;;;;;5.20;3.33;;;8.80;99.90;;;;;;5053979;28;20524;-66
2023/12/29 01:40:47;;;;;;;4.33;3.17;;;8.70;1.00;;;;;;5064312;28;20274;-66
2023/12/29 01:43:13;;;;;;;3.33;3.13;;;8.80;1.00;;;;;;5054190;28;20183;-66
2023/12/29 01:45:39;;;;;;;4.33;3.10;;;8.80;1.00;;;;;;5054321;28;20422;-70
2023/12/29 01:48:05;;;;;;;5.60;3.40;;;8.80;1.00;;;;;;5055013;28;20463;-71
2023/12/29 01:50:32;;;;;;;4.23;3.93;;;8.80;1.00;;;;;;5054829;28;20201;-69
2023/12/29 01:52:59;;;;;;;3.73;3.37;;;8.80;1.00;;;;;;5054919;28;20861;-68
2023/12/29 01:55:25;;;;;;;5.53;3.20;;;8.80;1.00;;;;;;5068586;28;20409;-72
2023/12/29 01:57:52;;;;;;;5.50;3.20;;;8.80;1.00;;;;;;5074975;28;20396;-72
2023/12/29 02:00:18;;;;;;;4.20;3.90;;;8.80;1.00;;;;;;5054521;28;20417;-71
2023/12/29 02:02:47;;;;;;;4.77;3.00;;;8.80;1.00;;;;;;5054394;28;20446;-67
2023/12/29 02:05:20;;;;;;;3.53;3.17;;;8.80;1.00;;;;;;5052909;28;21079;-71
2023/12/29 02:07:46;;;;;;;7.93;3.80;;;8.90;1.00;;;;;;5067927;28;20438;-68
2023/12/29 02:10:15;;;;;;;7.67;4.03;;;8.90;1.00;;;;;;5061478;28;20419;-68
2023/12/29 02:12:41;;;;;;;5.10;2.90;;;8.90;1.00;;;;;;5053419;28;20764;-68
2023/12/29 02:15:08;;;;;;;8.50;3.87;;;8.90;1.00;;;;;;5052611;28;20425;-70
2023/12/29 02:17:43;;;;;;;9.60;3.07;;;8.90;1.00;;;;;;5034830;28;20424;-69
2023/12/29 02:20:09;;;;;;;8.90;3.40;;;9.00;99.90;;;;;;5034665;28;20884;-68
2023/12/29 02:22:35;;;;;;;6.20;3.20;;;8.90;99.90;;;;;;5040945;28;20417;-73
2023/12/29 02:25:01;;;;;;;9.90;3.40;;;8.90;99.90;;;;;;5052787;28;20440;-70
2023/12/29 02:27:45;;;;;;;14.40;4.20;;;9.00;99.90;;;;;;5054317;28;20228;-72
2023/12/29 02:30:34;;;;;;;6.90;3.37;;;9.00;99.90;;;;;;5054041;28;20413;-71
2023/12/29 02:33:04;;;;;;;12.67;4.43;;;9.00;99.90;;;;;;5054180;28;20412;-70
2023/12/29 02:35:34;;;;;;;8.20;4.90;;;9.00;99.90;;;;;;5053310;28;20927;-70
2023/12/29 02:38:00;;;;;;;7.80;4.70;;;9.10;99.90;;;;;;5068802;28;20431;-72
2023/12/29 02:40:26;;;;;;;11.20;4.80;;;9.10;99.90;;;;;;5064142;28;20385;-70
2023/12/29 02:42:52;;;;;;;6.30;4.80;;;9.20;99.90;;;;;;5052814;28;20403;-73
2023/12/29 02:45:18;;;;;;;9.90;5.03;;;9.20;99.90;;;;;;5052656;28;20412;-73
2023/12/29 02:47:44;;;;;;;19.10;5.20;;;9.10;99.90;;;;;;5053961;28;20193;-69
2023/12/29 02:50:11;;;;;;;12.73;4.80;;;9.20;99.90;;;;;;5053999;28;20386;-72
2023/12/29 02:52:37;;;;;;;8.63;4.43;;;9.20;99.90;;;;;;5053716;28;20955;-72
2023/12/29 02:55:03;;;;;;;9.63;4.23;;;9.20;99.90;;;;;;5066384;28;20941;-73
2023/12/29 02:57:29;;;;;;;6.10;3.73;;;9.30;99.90;;;;;;5053057;28;20400;-70
2023/12/29 02:59:55;;;;;;;7.13;3.60;;;9.20;99.90;;;;;;5053799;28;20386;-71
2023/12/29 03:02:22;;;;;;;17.13;5.70;;;9.20;99.90;;;;;;5053313;28;20451;-70
2023/12/29 03:04:48;;;;;;;14.20;3.73;;;9.10;99.90;;;;;;5052500;28;20449;-72
2023/12/29 03:07:13;;;;;;;12.17;3.70;;;9.10;99.90;;;;;;5053385;28;20421;-74
2023/12/29 03:09:39;;;;;;;3.63;3.17;;;9.10;99.90;;;;;;5053895;28;20438;-73
2023/12/29 03:12:05;;;;;;;5.83;2.70;;;9.10;99.90;;;;;;5062804;28;20177;-75
2023/12/29 03:14:31;;;;;;;5.13;3.30;;;9.10;99.90;;;;;;5069445;28;20235;-78
2023/12/29 03:16:57;;;;;;;8.83;4.07;;;9.10;99.90;;;;;;5051638;28;20423;-73
2023/12/29 03:19:23;;;;;;;7.40;3.20;;;9.10;99.90;;;;;;5053041;28;20654;-74
2023/12/29 03:21:48;;;;;;;9.43;4.30;;;9.10;99.90;;;;;;5053590;28;20413;-71
2023/12/29 03:24:14;;;;;;;6.37;3.63;;;9.10;99.90;;;;;;5053052;28;20184;-71
2023/12/29 03:26:40;;;;;;;10.53;3.27;;;9.10;99.90;;;;;;5072417;28;20189;-70
2023/12/29 03:29:06;;;;;;;6.93;4.27;;;9.20;99.90;;;;;;5073122;28;20199;-74
2023/12/29 03:31:32;;;;;;;17.90;3.80;;;9.20;99.90;;;;;;5052927;28;20408;-72
2023/12/29 03:33:58;;;;;;;7.60;3.50;;;9.30;99.90;;;;;;5052170;28;20416;-73
2023/12/29 03:36:23;;;;;;;8.30;3.80;;;9.30;99.90;;;;;;5051502;28;20186;-73
2023/12/29 03:38:49;;;;;;;9.40;4.10;;;9.30;99.90;;;;;;5053023;28;20202;-71
2023/12/29 03:41:15;;;;;;;9.30;3.90;;;9.40;99.90;;;;;;5052453;28;20261;-71
2023/12/29 03:43:40;;;;;;;17.90;3.93;;;9.40;99.90;;;;;;5053263;28;20157;-73
2023/12/29 03:46:20;;;;;;;4.80;3.40;;;9.40;99.90;;;;;;5051779;28;20651;-74
2023/12/29 03:48:46;;;;;;;4.97;3.87;;;9.50;99.90;;;;;;5053152;28;20315;-73
2023/12/29 03:51:11;;;;;;;16.40;3.40;;;9.50;99.90;;;;;;5052776;28;20404;-76
2023/12/29 03:53:37;;;;;;;11.90;3.27;;;9.50;99.90;;;;;;5052377;28;20788;-71
2023/12/29 03:56:17;;;;;;;8.13;4.00;;;9.50;99.90;;;;;;5065808;28;20170;-72
2023/12/29 03:58:47;;;;;;;7.50;3.10;;;9.50;99.90;;;;;;5070903;28;20688;-72
2023/12/29 04:01:14;;;;;;;9.10;3.07;;;9.50;99.90;;;;;;5052345;28;20394;-77
2023/12/29 04:03:41;;;;;;;8.97;3.67;;;9.50;99.90;;;;;;5052696;28;20442;-74
2023/12/29 04:06:07;;;;;;;13.83;3.93;;;9.60;99.90;;;;;;5052174;28;20383;-75
2023/12/29 04:08:33;;;;;;;9.70;3.20;;;9.50;99.90;;;;;;5052826;28;20521;-75
2023/12/29 04:10:59;;;;;;;6.10;3.50;;;9.50;99.90;;;;;;5053441;28;20409;-72
2023/12/29 04:13:25;;;;;;;7.70;3.50;;;9.50;99.90;;;;;;5050971;28;20425;-71
2023/12/29 04:15:50;;;;;;;10.10;3.13;;;9.50;99.90;;;;;;5051933;28;20532;-74
2023/12/29 04:18:17;;;;;;;7.47;3.30;;;9.50;99.90;;;;;;5052935;28;20204;-72
2023/12/29 04:20:42;;;;;;;7.27;3.30;;;9.50;99.90;;;;;;5052755;28;20204;-72
2023/12/29 04:23:09;;;;;;;10.13;3.17;;;9.50;99.90;;;;;;5052672;28;20817;-74
2023/12/29 04:25:35;;;;;;;6.20;4.37;;;9.50;99.90;;;;;;5052025;28;20272;-71
2023/12/29 04:28:00;;;;;;;10.47;3.27;;;9.50;99.90;;;;;;5052646;28;20485;-75
2023/12/29 04:30:26;;;;;;;6.30;2.90;;;9.50;99.90;;;;;;5052137;28;20409;-75
2023/12/29 04:32:52;;;;;;;9.97;3.23;;;9.40;99.90;;;;;;5052136;28;20528;-71
2023/12/29 04:35:17;;;;;;;13.77;3.00;;;9.40;99.90;;;;;;5051729;28;20215;-74
2023/12/29 04:37:46;;;;;;;5.83;2.90;;;9.40;99.90;;;;;;5053002;28;20733;-74
2023/12/29 04:40:12;;;;;;;5.83;2.73;;;9.40;99.90;;;;;;5059828;28;20178;-71
2023/12/29 04:42:38;;;;;;;5.37;2.93;;;9.40;99.90;;;;;;5056414;28;20419;-71
2023/12/29 04:45:05;;;;;;;10.23;2.93;;;9.40;99.90;;;;;;5055612;28;20379;-73
2023/12/29 04:47:31;;;;;;;8.50;3.77;;;9.40;99.90;;;;;;5055793;28;20262;-71
2023/12/29 04:49:57;;;;;;;5.93;2.33;;;9.40;99.90;;;;;;5055319;28;20434;-71
2023/12/29 04:52:22;;;;;;;7.50;3.53;;;9.40;99.90;;;;;;5056027;28;20174;-75
2023/12/29 04:54:48;;;;;;;13.03;3.40;;;9.40;99.90;;;;;;5064365;28;20724;-76
2023/12/29 04:57:14;;;;;;;4.07;3.00;;;9.40;99.90;;;;;;5058570;28;20230;-71
2023/12/29 04:59:40;;;;;;;15.33;3.90;;;9.40;99.90;;;;;;5056224;28;20512;-74
2023/12/29 05:02:06;;;;;;;7.60;2.77;;;9.30;99.90;;;;;;5055691;28;20174;-75
2023/12/29 05:04:31;;;;;;;10.27;3.57;;;9.40;99.90;;;;;;5055028;28;20414;-78
2023/12/29 05:06:57;;;;;;;10.40;3.70;;;9.30;99.90;;;;;;5054225;28;20241;-72
2023/12/29 05:09:23;;;;;;;6.23;3.20;;;9.20;99.90;;;;;;5056425;28;20314;-74
2023/12/29 05:11:48;;;;;;;10.00;2.80;;;9.20;99.90;;;;;;5055842;28;20170;-75
2023/12/29 05:14:14;;;;;;;9.43;3.23;;;9.20;99.90;;;;;;5055778;28;20265;-70
2023/12/29 05:16:41;;;;;;;7.50;3.33;;;9.10;99.90;;;;;;5054367;28;20639;-74
2023/12/29 05:19:07;;;;;;;7.57;2.93;;;9.20;99.90;;;;;;5055873;28;20191;-73
2023/12/29 05:21:32;;;;;;;9.47;4.00;;;9.10;99.90;;;;;;5055665;28;20401;-71
2023/12/29 05:23:59;;;;;;;6.27;3.10;;;9.10;99.90;;;;;;5063930;28;20178;-76
2023/12/29 05:26:25;;;;;;;8.17;2.43;;;9.10;99.90;;;;;;5051701;28;20555;-70
2023/12/29 05:28:50;;;;;;;7.03;3.00;;;9.10;99.90;;;;;;5040474;28;20481;-77
2023/12/29 05:31:16;;;;;;;10.10;3.17;;;9.10;99.90;;;;;;5054980;28;20539;-75
2023/12/29 05:33:44;;;;;;;9.03;2.90;;;9.10;99.90;;;;;;5055605;28;20703;-72
2023/12/29 05:36:10;;;;;;;5.63;3.20;;;9.20;99.90;;;;;;5054071;28;20628;-77
2023/12/29 05:38:41;;;;;;;13.53;4.30;;;9.10;99.90;;;;;;5056074;28;20795;-75
2023/12/29 05:41:06;;;;;;;6.50;5.37;;;9.10;99.90;;;;;;5055116;28;20966;-75
2023/12/29 05:43:34;;;;;;;11.97;4.40;;;9.10;99.90;;;;;;5054910;28;20499;-72
2023/12/29 05:46:00;;;;;;;11.27;3.30;;;9.10;99.90;;;;;;5053728;28;20413;-71
2023/12/29 05:48:26;;;;;;;9.50;3.50;;;9.00;99.90;;;;;;5053684;28;20435;-77
2023/12/29 05:50:53;;;;;;;11.40;4.40;;;8.90;99.90;;;;;;5054056;28;20816;-71
2023/12/29 05:53:18;;;;;;;11.93;3.20;;;8.90;97.30;;;;;;5057178;28;20405;-71
2023/12/29 05:55:45;;;;;;;9.10;3.43;;;8.90;96.00;;;;;;5054195;28;20435;-71
2023/12/29 05:58:11;;;;;;;3.70;3.37;;;8.90;89.10;;;;;;5053802;28;20614;-73
2023/12/29 06:00:37;;;;;;;10.40;3.73;;;8.90;44.00;;;;;;5054601;28;20417;-73
2023/12/29 06:03:06;;;;;;;6.63;3.00;;;8.90;15.50;;;;;;5052960;28;20292;-75
2023/12/29 06:05:32;;;;;;;11.17;4.30;;;9.00;14.80;;;;;;5053629;28;20417;-71
2023/12/29 06:07:58;;;;;;;10.17;4.13;;;9.00;10.90;;;;;;5054533;28;20545;-75
2023/12/29 06:10:24;;;;;;;11.20;4.00;;;9.00;1.60;;;;;;5054789;28;20462;-75
2023/12/29 06:12:50;;;;;;;8.27;2.90;;;9.00;1.00;;;;;;5054946;28;20405;-70
2023/12/29 06:15:16;;;;;;;12.53;4.30;;;9.00;1.00;;;;;;5053645;28;20430;-72
2023/12/29 06:17:42;;;;;;;7.83;3.00;;;9.00;1.00;;;;;;5054652;28;20216;-71
2023/12/29 06:20:09;;;;;;;12.13;2.70;;;9.00;1.00;;;;;;5054477;28;20174;-74
2023/12/29 06:22:41;;;;;;;9.50;3.50;;;8.90;1.00;;;;;;5062452;28;20450;-70
2023/12/29 06:25:13;;;;;;;8.80;4.43;;;8.90;1.00;;;;;;5073549;28;20874;-76
2023/12/29 06:27:40;;;;;;;10.47;3.17;;;8.80;1.00;;;;;;5053884;28;20436;-71
2023/12/29 06:30:07;;;;;;;5.40;2.63;;;8.80;1.00;;;;;;5054204;28;20428;-73
2023/12/29 06:32:33;;;;;;;9.30;2.70;;;8.80;1.00;;;;;;5034428;28;20522;-74
2023/12/29 06:34:59;;;;;;;16.63;3.53;;;8.80;1.00;;;;;;5033592;28;20996;-71
2023/12/29 06:37:24;;;;;;;10.07;3.63;;;8.80;1.00;;;;;;5044697;28;20438;-77
2023/12/29 06:39:50;;;;;;;12.20;4.83;;;8.80;1.00;;;;;;5053362;28;20189;-77
2023/12/29 06:42:16;;;;;;;12.13;3.70;;;8.80;1.00;;;;;;5054079;28;20273;-75
2023/12/29 06:44:42;;;;;;;7.60;4.07;;;8.80;1.00;;;;;;5053150;28;20598;-70
2023/12/29 06:47:07;;;;;;;17.60;5.57;;;8.90;1.00;;;;;;5052830;28;20191;-76
2023/12/29 06:49:36;;;;;;;9.57;4.00;;;8.90;1.00;;;;;;5054056;28;20277;-76
2023/12/29 06:52:02;;;;;;;10.73;2.63;;;9.00;1.00;;;;;;5064844;28;20174;-73
2023/12/29 06:54:28;;;;;;;14.50;3.90;;;8.90;1.00;;;;;;5062886;28;20956;-72
2023/12/29 06:56:54;;;;;;;14.77;3.70;;;8.90;1.00;;;;;;5053023;28;20391;-71
2023/12/29 06:59:19;;;;;;;12.30;3.90;;;9.00;1.00;;;;;;5053904;28;20179;-74
2023/12/29 07:01:48;;;;;;;20.37;5.10;;;8.90;1.00;;;;;;5053212;28;20635;-71
2023/12/29 07:04:15;;;;;;;18.70;4.30;;;8.90;1.00;;;;;;5053653;28;20440;-73
2023/12/29 07:06:41;;;;;;;21.00;5.17;;;8.90;1.00;;;;;;5053847;28;20897;-73
2023/12/29 07:09:08;;;;;;;16.00;4.20;;;8.90;1.00;;;;;;5053656;28;20529;-72
2023/12/29 07:11:34;;;;;;;15.23;3.40;;;8.90;1.00;;;;;;5053639;28;20903;-75
2023/12/29 07:14:00;;;;;;;16.10;3.77;;;8.90;1.00;;;;;;5052003;28;20402;-76
2023/12/29 07:16:26;;;;;;;19.10;5.87;;;8.90;1.00;;;;;;5050357;28;20428;-71
2023/12/29 07:18:51;;;;;;;8.73;3.00;;;8.90;1.00;;;;;;5033611;28;20690;-72
2023/12/29 07:21:17;;;;;;;14.80;4.20;;;8.80;1.00;;;;;;5033893;28;20417;-72
2023/12/29 07:23:43;;;;;;;15.47;4.00;;;8.90;1.00;;;;;;5053766;28;20630;-76
2023/12/29 07:26:09;;;;;;;22.13;4.73;;;8.80;1.00;;;;;;5052063;28;20433;-72
2023/12/29 07:28:35;;;;;;;17.10;4.80;;;8.90;1.00;;;;;;5053584;28;20232;-72
2023/12/29 07:31:01;;;;;;;15.77;4.47;;;8.80;1.00;;;;;;5052486;28;20390;-74
2023/12/29 07:33:27;;;;;;;9.97;3.50;;;8.80;1.00;;;;;;5052351;28;20234;-77
2023/12/29 07:35:54;;;;;;;18.20;4.90;;;8.60;1.00;;;;;;5050478;28;20903;-73
2023/12/29 07:38:20;;;;;;;23.00;5.90;;;8.50;1.00;;;;;;5052938;28;20446;-70
2023/12/29 07:40:47;;;;;;;23.50;5.43;;;8.50;1.00;;;;;;5053128;28;20406;-74
2023/12/29 07:43:13;;;;;;;20.27;4.10;;;8.60;1.00;;;;;;5053058;28;20833;-71
2023/12/29 07:45:39;;;;;;;18.70;6.17;;;8.50;1.00;;;;;;5051292;28;20510;-71
2023/12/29 07:48:05;;;;;;;11.17;5.43;;;8.60;1.00;;;;;;5051252;28;20523;-74
2023/12/29 07:50:31;;;;;;;13.93;4.03;;;8.60;1.00;;;;;;5071337;28;20174;-74
2023/12/29 07:52:57;;;;;;;9.40;4.10;;;8.60;1.00;;;;;;5071903;28;20409;-76
2023/12/29 07:55:23;;;;;;;12.53;4.83;;;8.60;1.00;;;;;;5071895;28;20171;-71
2023/12/29 07:57:48;;;;;;;11.00;4.47;;;8.60;1.00;;;;;;5071698;28;20555;-75
2023/12/29 08:00:15;;;;;;;8.90;3.97;;;8.60;1.00;;;;;;5073045;28;20177;-72
2023/12/29 08:02:41;;;;;;;19.20;5.50;;;8.60;1.00;;;;;;5069590;28;20179;-73
2023/12/29 08:05:10;;;;;;;14.00;4.40;;;8.70;1.00;;;;;;5050170;28;20512;-71
2023/12/29 08:07:39;;;;;;;18.40;4.80;;;8.70;1.00;;;;;;5051715;28;20237;-74
2023/12/29 08:10:06;;;;;;;8.57;3.47;;;8.70;1.00;;;;;;5052779;28;20511;-73
2023/12/29 08:12:33;;;;;;;17.53;5.50;;;8.80;1.00;;;;;;5052839;28;20397;-71
2023/12/29 08:15:00;;;;;;;19.27;4.70;;;8.80;1.00;;;;;;5056248;28;20387;-70
2023/12/29 08:17:26;;;;;;;14.97;4.50;;;8.70;1.00;;;;;;5056896;28;20415;-74
2023/12/29 08:19:51;;;;;;;14.60;4.90;;;8.80;1.00;;;;;;5056896;28;20382;-74
2023/12/29 08:22:19;;;;;;;11.87;4.90;;;8.80;1.00;;;;;;5056854;28;20481;-74
2023/12/29 08:24:44;;;;;;;23.93;4.07;;;8.80;1.00;;;;;;5055942;28;20184;-72
2023/12/29 08:27:12;;;;;;;14.90;5.73;;;8.80;1.00;;;;;;5059365;28;20428;-71
2023/12/29 08:29:38;;;;;;;15.93;5.70;;;8.90;1.00;;;;;;5076668;28;20228;-72
2023/12/29 08:32:04;;;;;;;8.63;4.53;;;8.90;1.00;;;;;;5076275;28;20902;-76
2023/12/29 08:34:30;;;;;;;11.00;3.80;;;8.80;1.00;;;;;;5076392;28;20808;-75
2023/12/29 08:36:56;;;;;;;7.83;3.37;;;8.80;1.00;;;;;;5072340;28;20475;-76
2023/12/29 08:39:22;;;;;;;15.43;4.70;;;9.00;1.00;;;;;;5056306;28;20175;-71
2023/12/29 08:41:49;;;;;;;17.10;3.77;;;9.00;1.00;;;;;;5056166;28;20620;-76
2023/12/29 08:44:15;;;;;;;17.33;5.87;;;8.90;1.00;;;;;;5056689;28;20921;-71
2023/12/29 08:46:41;;;;;;;11.30;4.60;;;8.90;1.00;;;;;;5066579;28;20429;-75
2023/12/29 08:49:07;;;;;;;16.50;3.93;;;8.90;1.00;;;;;;5076007;28;20454;-75
2023/12/29 08:51:33;;;;;;;12.07;4.60;;;9.00;1.00;;;;;;5076062;28;20728;-74
2023/12/29 08:53:58;;;;;;;18.80;4.83;;;8.90;1.00;;;;;;5057414;28;20178;-71
2023/12/29 08:56:24;;;;;;;13.83;4.57;;;8.90;1.00;;;;;;5055549;28;20398;-71
2023/12/29 08:58:50;;;;;;;14.90;3.83;;;8.90;1.00;;;;;;5055697;28;20196;-73
2023/12/29 09:01:15;;;;;;;13.63;3.40;;;8.90;1.00;;;;;;5054643;28;20175;-71
2023/12/29 09:03:42;;;;;;;17.27;3.73;;;8.90;1.00;;;;;;5056102;28;20189;-73
2023/12/29 09:06:08;;;;;;;16.40;4.07;;;9.00;1.00;;;;;;5055300;28;20666;-71
2023/12/29 09:08:34;;;;;;;12.27;3.90;;;9.10;1.00;;;;;;5056089;28;20462;-76
2023/12/29 09:11:01;;;;;;;15.50;4.63;;;9.00;1.00;;;;;;5055820;28;20382;-76
2023/12/29 09:13:26;;;;;;;17.37;5.20;;;9.10;1.00;;;;;;5056002;28;20866;-71
2023/12/29 09:15:54;;;;;;;11.93;4.20;;;9.10;1.00;;;;;;5041234;28;20518;-72
2023/12/29 09:18:20;;;;;;;12.20;4.53;;;9.10;1.00;;;;;;5035493;28;20184;-70
2023/12/29 09:20:46;;;;;;;17.40;4.17;;;9.10;1.00;;;;;;5035847;28;20414;-76
2023/12/29 09:23:12;;;;;;;23.57;5.63;;;9.00;1.00;;;;;;5054044;28;20522;-76
2023/12/29 09:25:37;;;;;;;14.53;4.30;;;9.10;1.00;;;;;;5052966;28;20194;-75
2023/12/29 09:28:04;;;;;;;16.57;4.77;;;9.10;1.00;;;;;;5055338;28;20215;-76
2023/12/29 09:30:29;;;;;;;18.20;4.60;;;9.10;1.00;;;;;;5055613;28;20575;-72
2023/12/29 09:32:55;;;;;;;18.37;4.03;;;9.00;1.00;;;;;;5055409;28;20404;-72
2023/12/29 09:35:21;;;;;;;12.67;3.33;;;9.00;1.00;;;;;;5054385;28;20223;-74
2023/12/29 09:37:50;;;;;;;18.53;3.97;;;9.10;99.90;;;;;;5054475;28;20417;-75
2023/12/29 09:40:16;;;;;;;17.57;5.23;;;9.10;99.90;;;;;;5055437;28;20167;-76
2023/12/29 09:42:45;;;;;;;17.90;4.57;;;9.10;99.90;;;;;;5055620;28;20733;-71
2023/12/29 09:45:12;;;;;;;12.03;4.80;;;9.10;99.90;;;;;;5054100;28;20413;-70
2023/12/29 09:47:43;;;;;;;23.20;5.93;;;9.10;99.90;;;;;;5055250;28;20480;-77
2023/12/29 09:50:13;;;;;;;8.80;3.80;;;9.10;99.90;;;;;;5053909;28;20814;-71
2023/12/29 09:52:43;;;;;;;10.97;4.60;;;9.20;99.90;;;;;;5055680;28;20411;-70
2023/12/29 09:55:10;;;;;;;19.70;4.07;;;9.20;1.00;;;;;;5053877;28;20929;-76
2023/12/29 09:57:40;;;;;;;16.00;4.90;;;9.20;99.90;;;;;;5053764;28;20414;-77
2023/12/29 10:00:10;;;;;;;20.33;4.80;;;9.30;99.90;;;;;;5054120;28;20398;-70
2023/12/29 10:02:36;;;;;;;16.57;4.00;;;9.30;99.90;;;;;;5054714;28;20384;-71
2023/12/29 10:05:04;;;;;;;19.93;5.10;;;9.30;99.90;;;;;;5053880;28;20397;-73
2023/12/29 10:07:35;;;;;;;14.20;3.87;;;9.30;99.90;;;;;;5054535;28;20415;-71
2023/12/29 10:10:02;;;;;;;14.30;4.03;;;9.40;99.90;;;;;;5054935;28;20538;-71
2023/12/29 10:12:29;;;;;;;13.90;2.73;;;9.40;99.90;;;;;;5054537;28;20401;-71
2023/12/29 10:15:12;;;;;;;9.13;3.60;;;9.50;99.90;;;;;;5053934;28;20386;-71
2023/12/29 10:17:55;;;;;;;8.87;3.20;;;9.50;99.90;;;;;;5054562;28;20400;-71
2023/12/29 10:20:42;;;;;;;7.63;2.33;;;9.60;99.90;;;;;;5068320;28;20843;-70
2023/12/29 10:23:16;;;;;;;9.50;3.37;;;9.60;99.90;;;;;;5054868;28;20402;-76
2023/12/29 10:25:43;;;;;;;17.37;4.30;;;9.60;99.90;;;;;;5053524;28;20456;-72
2023/12/29 10:28:13;;;;;;;10.30;3.33;;;9.60;99.90;;;;;;5054303;28;20392;-72
2023/12/29 10:30:38;;;;;;;15.67;4.43;;;9.60;99.90;;;;;;5054311;28;20424;-79
2023/12/29 10:33:04;;;;;;;16.33;4.10;;;9.60;99.90;;;;;;5053191;28;20491;-76
2023/12/29 10:35:31;;;;;;;15.60;4.47;;;9.50;99.90;;;;;;5051630;28;20509;-76
2023/12/29 10:38:10;;;;;;;14.50;3.27;;;9.50;99.90;;;;;;5054677;28;20432;-76
2023/12/29 10:40:36;;;;;;;6.50;3.40;;;9.50;99.90;;;;;;5054410;28;20413;-73
2023/12/29 10:43:06;;;;;;;15.57;3.63;;;9.50;99.90;;;;;;5054158;28;20418;-74
2023/12/29 10:45:32;;;;;;;21.43;4.57;;;9.70;99.90;;;;;;5053364;28;20165;-76
2023/12/29 10:48:00;;;;;;;16.67;3.97;;;9.60;99.90;;;;;;5053772;28;20404;-71
2023/12/29 10:50:27;;;;;;;6.27;2.80;;;9.60;99.90;;;;;;5052749;28;20496;-72
2023/12/29 10:53:12;;;;;;;15.73;5.03;;;9.60;99.90;;;;;;5071306;28;20412;-73
2023/12/29 10:55:38;;;;;;;12.07;3.90;;;9.60;99.90;;;;;;5072665;28;20393;-76
2023/12/29 10:58:05;;;;;;;20.97;4.80;;;9.60;99.90;;;;;;5072741;28;20403;-71
2023/12/29 11:00:31;;;;;;;9.00;3.40;;;9.60;99.90;;;;;;5073860;28;20228;-72
2023/12/29 11:02:57;;;;;;;10.07;3.37;;;9.60;99.90;;;;;;5072476;28;20409;-71
2023/12/29 11:05:25;;;;;;;11.33;3.90;;;9.50;99.90;;;;;;5061406;28;20371;-79
2023/12/29 11:07:54;;;;;;;12.83;3.83;;;9.50;99.90;;;;;;5067651;28;20208;-73
2023/12/29 11:10:20;;;;;;;15.00;3.67;;;9.50;99.90;;;;;;5073448;28;20500;-77
2023/12/29 11:12:47;;;;;;;14.67;3.90;;;9.60;99.90;;;;;;5073510;28;20477;-77
2023/12/29 11:15:14;;;;;;;15.23;4.33;;;9.50;99.90;;;;;;5072798;28;20799;-71
2023/12/29 11:17:52;;;;;;;12.50;3.60;;;9.60;99.90;;;;;;5068251;28;20491;-75
2023/12/29 11:20:18;;;;;;;12.53;4.10;;;9.60;99.90;;;;;;5058081;28;20467;-73
2023/12/29 11:22:46;;;;;;;14.03;4.70;;;9.60;99.90;;;;;;5059522;28;20481;-76
2023/12/29 11:25:13;;;;;;;14.03;3.73;;;9.50;99.90;;;;;;5051826;28;20487;-78
2023/12/29 11:27:42;;;;;;;19.07;4.53;;;9.50;99.90;;;;;;5052032;28;20436;-77
2023/12/29 11:30:09;;;;;;;13.00;3.87;;;9.50;99.90;;;;;;5053233;28;20531;-76
2023/12/29 11:32:46;;;;;;;11.57;4.57;;;9.50;99.90;;;;;;5056429;28;20795;-73
2023/12/29 11:35:38;;;;;;;19.43;4.00;;;9.50;99.90;;;;;;5072594;28;20900;-72
2023/12/29 11:38:24;;;;;;;10.33;3.60;;;9.50;99.90;;;;;;5072273;28;20501;-72
2023/12/29 11:41:21;;;;;;;18.87;3.50;;;9.60;99.90;;;;;;5073157;28;20898;-77
2023/12/29 11:43:59;;;;;;;6.60;2.87;;;9.70;99.90;;;;;;5071642;28;20406;-76
2023/12/29 11:46:43;;;;;;;7.00;3.17;;;9.80;99.90;;;;;;5070930;28;20375;-71
2023/12/29 11:49:09;;;;;;;8.53;3.93;;;9.80;99.90;;;;;;5071974;28;20432;-78
2023/12/29 11:51:38;;;;;;;13.10;3.70;;;9.80;99.90;;;;;;5071632;28;20407;-71
2023/12/29 11:54:05;;;;;;;12.77;4.90;;;9.90;99.90;;;;;;5033409;28;20174;-78
2023/12/29 11:56:40;;;;;;;16.13;4.43;;;9.80;99.90;;;;;;5032251;28;20427;-77
2023/12/29 11:59:31;;;;;;;5.70;2.60;;;9.70;99.90;;;;;;5032923;28;20506;-77
2023/12/29 12:02:00;;;;;;;8.23;2.97;;;9.60;99.90;;;;;;5045323;28;20421;-78
2023/12/29 12:04:45;;;;;;;15.33;3.67;;;9.60;99.90;;;;;;5052659;28;20428;-78
2023/12/29 12:07:23;;;;;;;6.87;2.80;;;9.60;99.90;;;;;;5054874;28;20608;-77
2023/12/29 12:09:50;;;;;;;5.07;3.00;;;9.60;99.90;;;;;;5072820;28;20421;-70
2023/12/29 12:12:43;;;;;;;11.17;3.70;;;9.50;99.90;;;;;;5071675;28;20884;-77
2023/12/29 12:15:27;;;;;;;14.50;3.40;;;9.40;99.90;;;;;;5063953;28;20415;-71
2023/12/29 12:17:53;;;;;;;18.40;4.17;;;9.40;99.90;;;;;;5072875;28;20387;-73
2023/12/29 12:20:19;;;;;;;14.63;4.20;;;9.40;99.90;;;;;;5071686;28;20506;-76
2023/12/29 12:22:49;;;;;;;10.17;3.90;;;9.40;99.90;;;;;;5071200;28;20553;-78
2023/12/29 12:25:15;;;;;;;14.27;4.03;;;9.40;99.90;;;;;;5071907;28;20433;-70
2023/12/29 12:27:42;;;;;;;9.30;5.13;;;9.50;99.90;;;;;;5072772;28;20959;-78
2023/12/29 12:30:09;;;;;;;18.17;5.47;;;9.40;99.90;;;;;;5055857;28;20434;-78
2023/12/29 12:32:35;;;;;;;21.93;5.03;;;9.40;99.90;;;;;;5052766;28;20393;-79
2023/12/29 12:35:01;;;;;;;21.37;4.50;;;9.30;99.90;;;;;;5056438;28;20522;-71
2023/12/29 12:37:28;;;;;;;14.60;4.43;;;9.30;99.90;;;;;;5066788;28;20250;-78
2023/12/29 12:39:55;;;;;;;10.43;3.67;;;9.20;99.90;;;;;;5052375;28;20757;-72
2023/12/29 12:42:23;;;;;;;9.63;3.70;;;9.30;99.90;;;;;;5052003;28;20894;-71
2023/12/29 12:45:03;;;;;;;11.77;4.00;;;9.20;99.90;;;;;;5051885;28;20440;-71
2023/12/29 12:47:45;;;;;;;17.83;5.90;;;9.20;99.90;;;;;;5052419;28;20458;-69
2023/12/29 12:50:13;;;;;;;18.30;3.00;;;9.20;99.90;;;;;;5052442;28;20452;-70
2023/12/29 12:52:40;;;;;;;7.33;2.70;;;9.00;99.90;;;;;;5060868;28;20410;-69
2023/12/29 12:55:07;;;;;;;8.10;3.40;;;8.50;99.90;;;;;;5071783;28;20908;-77
2023/12/29 12:57:34;;;;;;;13.23;3.43;;;8.20;99.90;;;;;;5060567;28;20514;-77